createdAt,value
2023-04-06T00:00:13.332Z,10.57
2023-04-06T00:02:41.992Z,14.10
2023-04-06T00:05:11.127Z,10.47
2023-04-06T00:07:41.390Z,9.17
2023-04-06T00:10:12.149Z,11.40
2023-04-06T00:12:40.681Z,11.27
2023-04-06T00:15:10.608Z,11.87
2023-04-06T00:17:39.142Z,11.30
2023-04-06T00:20:09.478Z,11.53
2023-04-06T00:22:37.944Z,12.43
2023-04-06T00:25:08.954Z,9.40
2023-04-06T00:27:37.472Z,11.03
2023-04-06T00:30:07.568Z,10.13
2023-04-06T00:32:37.366Z,10.47
2023-04-06T00:35:07.483Z,9.73
2023-04-06T00:37:36.026Z,9.90
2023-04-06T00:40:05.032Z,10.23
2023-04-06T00:42:34.947Z,11.00
2023-04-06T00:45:04.787Z,11.43
2023-04-06T00:47:33.383Z,12.33
2023-04-06T00:50:02.004Z,11.63
2023-04-06T00:52:30.462Z,11.97
2023-04-06T00:54:59.150Z,11.63
2023-04-06T00:57:27.956Z,12.00
2023-04-06T00:59:59.681Z,11.57
2023-04-06T01:02:28.278Z,11.70
2023-04-06T01:04:57.617Z,13.53
2023-04-06T01:07:31.836Z,17.97
2023-04-06T01:10:12.243Z,13.63
2023-04-06T01:12:41.272Z,11.63
2023-04-06T01:15:21.647Z,10.33
2023-04-06T01:17:53.117Z,10.97
2023-04-06T01:20:21.988Z,10.80
2023-04-06T01:22:52.109Z,10.60
2023-04-06T01:25:21.634Z,10.83
2023-04-06T01:28:04.000Z,11.37
2023-04-06T01:31:04.523Z,13.93
2023-04-06T01:33:52.312Z,9.87
2023-04-06T01:36:24.280Z,9.80
2023-04-06T01:39:02.376Z,13.30
2023-04-06T01:41:36.599Z,15.83
2023-04-06T01:44:05.548Z,12.57
2023-04-06T01:46:35.119Z,12.30
2023-04-06T01:49:06.312Z,12.63
2023-04-06T01:51:37.625Z,9.30
2023-04-06T01:54:10.665Z,15.43
2023-04-06T01:56:54.147Z,11.73
2023-04-06T01:59:30.706Z,13.77
2023-04-06T02:02:00.413Z,11.73
2023-04-06T02:04:30.353Z,20.27
2023-04-06T02:07:09.484Z,22.87
2023-04-06T02:09:39.547Z,13.03
2023-04-06T02:12:12.286Z,12.93
2023-04-06T02:14:40.848Z,11.97
2023-04-06T02:17:09.445Z,13.10
2023-04-06T02:19:38.241Z,14.03
2023-04-06T02:22:07.678Z,13.53
2023-04-06T02:24:36.560Z,9.50
2023-04-06T02:27:06.918Z,12.33
2023-04-06T02:29:35.459Z,11.93
2023-04-06T02:32:04.513Z,11.53
2023-04-06T02:34:34.920Z,13.63
2023-04-06T02:37:03.637Z,12.50
2023-04-06T02:39:32.406Z,13.80
2023-04-06T02:42:01.977Z,11.67
2023-04-06T02:44:32.993Z,14.67
2023-04-06T02:47:01.442Z,13.40
2023-04-06T02:49:30.187Z,13.10
2023-04-06T02:52:01.369Z,12.43
2023-04-06T02:54:34.161Z,13.10
2023-04-06T02:57:04.262Z,14.93
2023-04-06T02:59:44.246Z,12.83
2023-04-06T03:02:27.629Z,12.93
2023-04-06T03:05:05.256Z,11.77
2023-04-06T03:07:38.702Z,14.13
2023-04-06T03:10:11.635Z,11.13
2023-04-06T03:12:40.400Z,13.00
2023-04-06T03:15:22.881Z,13.40
2023-04-06T03:17:58.877Z,13.63
2023-04-06T03:20:35.403Z,14.50
2023-04-06T03:23:04.019Z,16.03
2023-04-06T03:25:37.009Z,15.20
2023-04-06T03:28:08.476Z,12.80
2023-04-06T03:30:44.131Z,13.17
2023-04-06T03:33:13.965Z,22.07
2023-04-06T03:35:51.924Z,13.60
2023-04-06T03:38:20.822Z,12.50
2023-04-06T03:40:49.421Z,14.40
2023-04-06T03:43:22.868Z,12.40
2023-04-06T03:45:52.781Z,15.63
2023-04-06T03:48:22.272Z,15.03
2023-04-06T03:50:51.017Z,12.30
2023-04-06T03:53:19.666Z,12.30
2023-04-06T03:55:48.164Z,15.00
2023-04-06T03:58:18.069Z,15.43
2023-04-06T04:00:47.546Z,13.40
2023-04-06T04:03:17.618Z,12.20
2023-04-06T04:05:46.344Z,14.13
2023-04-06T04:08:15.881Z,11.30
2023-04-06T04:10:44.341Z,15.23
2023-04-06T04:13:12.921Z,15.27
2023-04-06T04:15:42.641Z,16.77
2023-04-06T04:18:13.665Z,16.17
2023-04-06T04:20:43.641Z,13.97
2023-04-06T04:23:15.385Z,17.23
2023-04-06T04:25:45.574Z,15.77
2023-04-06T04:28:14.049Z,17.97
2023-04-06T04:30:44.034Z,15.53
2023-04-06T04:33:14.010Z,17.10
2023-04-06T04:35:45.465Z,16.80
2023-04-06T04:38:17.936Z,16.70
2023-04-06T04:40:52.416Z,14.87
2023-04-06T04:43:21.072Z,15.53
2023-04-06T04:45:51.709Z,14.67
2023-04-06T04:48:30.588Z,14.27
2023-04-06T04:51:04.739Z,13.50
2023-04-06T04:53:44.831Z,14.83
2023-04-06T04:56:22.095Z,12.50
2023-04-06T04:58:55.144Z,13.40
2023-04-06T05:01:24.460Z,15.17
2023-04-06T05:03:53.589Z,15.80
2023-04-06T05:06:23.599Z,13.13
2023-04-06T05:08:52.713Z,13.77
2023-04-06T05:11:22.483Z,14.83
2023-04-06T05:13:58.590Z,13.73
2023-04-06T05:16:27.491Z,13.27
2023-04-06T05:18:57.745Z,12.83
2023-04-06T05:21:32.731Z,14.80
2023-04-06T05:24:06.414Z,12.47
2023-04-06T05:26:36.437Z,17.47
2023-04-06T05:29:10.708Z,17.57
2023-04-06T05:31:40.769Z,20.37
2023-04-06T05:34:11.505Z,14.50
2023-04-06T05:36:42.359Z,13.20
2023-04-06T05:39:19.465Z,19.67
2023-04-06T05:41:53.365Z,19.27
2023-04-06T05:44:32.840Z,21.17
2023-04-06T05:47:08.300Z,14.40
2023-04-06T05:49:38.100Z,17.90
2023-04-06T05:52:12.351Z,14.33
2023-04-06T05:54:44.162Z,19.23
2023-04-06T05:57:12.838Z,14.90
2023-04-06T05:59:41.832Z,15.33
2023-04-06T06:02:11.896Z,18.47
2023-04-06T06:04:44.255Z,16.20
2023-04-06T06:07:14.374Z,12.97
2023-04-06T06:09:47.025Z,15.77
2023-04-06T06:12:26.645Z,18.63
2023-04-06T06:14:57.314Z,19.67
2023-04-06T06:17:28.247Z,16.10
2023-04-06T06:19:57.645Z,17.90
2023-04-06T06:22:27.685Z,15.77
2023-04-06T06:24:56.514Z,15.50
2023-04-06T06:27:26.047Z,17.47
2023-04-06T06:29:54.851Z,15.40
2023-04-06T06:32:24.966Z,13.53
2023-04-06T06:34:55.607Z,16.10
2023-04-06T06:37:24.134Z,15.97
2023-04-06T06:39:54.313Z,16.03
2023-04-06T06:42:23.687Z,21.40
2023-04-06T06:45:07.994Z,14.90
2023-04-06T06:47:36.646Z,23.27
2023-04-06T06:50:07.020Z,13.37
2023-04-06T06:52:35.622Z,15.93
2023-04-06T06:55:06.235Z,14.60
2023-04-06T06:57:34.921Z,21.47
2023-04-06T07:00:06.160Z,13.23
2023-04-06T07:02:37.725Z,14.93
2023-04-06T07:05:23.591Z,16.70
2023-04-06T07:07:55.889Z,18.77
2023-04-06T07:10:26.926Z,15.40
2023-04-06T07:12:55.567Z,18.67
2023-04-06T07:15:24.690Z,11.43
2023-04-06T07:17:55.544Z,12.00
2023-04-06T07:20:24.596Z,16.93
2023-04-06T07:22:53.214Z,22.10
2023-04-06T07:25:24.301Z,14.37
2023-04-06T07:27:55.532Z,13.33
2023-04-06T07:30:27.189Z,10.73
2023-04-06T07:32:56.533Z,12.07
2023-04-06T07:35:27.038Z,12.97
2023-04-06T07:37:56.473Z,10.97
2023-04-06T07:40:25.070Z,11.13
2023-04-06T07:42:56.196Z,11.03
2023-04-06T07:45:26.462Z,10.83
2023-04-06T07:47:55.580Z,12.07
2023-04-06T07:50:25.632Z,13.23
2023-04-06T07:52:55.651Z,10.70
2023-04-06T07:55:24.622Z,11.65
2023-04-06T07:57:53.260Z,11.05
2023-04-06T08:00:24.101Z,13.67
2023-04-06T08:02:52.651Z,11.50
2023-04-06T08:05:21.552Z,11.07
2023-04-06T08:07:50.103Z,10.70
2023-04-06T08:10:18.543Z,10.20
2023-04-06T08:12:46.981Z,10.67
2023-04-06T08:15:15.906Z,7.57
2023-04-06T08:17:45.741Z,13.03
2023-04-06T08:20:14.291Z,9.20
2023-04-06T08:22:42.724Z,8.97
2023-04-06T08:25:11.387Z,11.30
2023-04-06T08:27:39.892Z,12.63
2023-04-06T08:30:11.142Z,12.20
2023-04-06T08:32:39.734Z,12.43
2023-04-06T08:35:10.502Z,11.47
2023-04-06T08:37:38.942Z,11.93
2023-04-06T08:40:09.606Z,8.83
2023-04-06T08:42:46.240Z,10.75
2023-04-06T08:45:18.757Z,14.65
2023-04-06T08:47:49.113Z,11.27
2023-04-06T08:50:19.981Z,12.80
2023-04-06T08:52:50.713Z,10.85
2023-04-06T08:55:19.557Z,12.35
2023-04-06T08:57:49.115Z,19.10
2023-04-06T09:00:19.823Z,13.97
2023-04-06T09:02:51.290Z,10.40
2023-04-06T09:05:21.677Z,9.85
2023-04-06T09:07:50.360Z,11.43
2023-04-06T09:10:19.799Z,9.00
2023-04-06T09:12:48.311Z,9.85
2023-04-06T09:15:25.158Z,7.72
2023-04-06T09:17:55.492Z,8.68
2023-04-06T09:20:28.958Z,12.10
2023-04-06T09:22:57.856Z,10.73
2023-04-06T09:25:28.419Z,8.82
2023-04-06T09:28:07.763Z,10.68
2023-04-06T09:30:36.956Z,9.32
2023-04-06T09:33:05.733Z,8.77
2023-04-06T09:35:35.634Z,7.78
2023-04-06T09:38:13.823Z,9.20
2023-04-06T09:41:00.766Z,8.00
2023-04-06T09:43:30.584Z,9.55
2023-04-06T09:46:00.902Z,9.10
2023-04-06T09:48:33.206Z,10.00
2023-04-06T09:51:08.573Z,8.80
2023-04-06T09:53:42.964Z,10.63
2023-04-06T09:56:22.580Z,7.35
2023-04-06T09:58:54.961Z,10.23
2023-04-06T10:01:28.329Z,10.20
2023-04-06T10:04:13.440Z,10.65
2023-04-06T10:06:44.039Z,10.27
2023-04-06T10:09:14.765Z,9.65
2023-04-06T10:11:44.532Z,7.22
2023-04-06T10:14:13.825Z,9.40
2023-04-06T10:16:42.373Z,7.28
2023-04-06T10:19:17.701Z,5.50
2023-04-06T10:21:55.421Z,5.50
2023-04-06T10:24:24.010Z,7.82
2023-04-06T10:27:04.233Z,10.50
2023-04-06T10:29:46.217Z,6.20
2023-04-06T10:32:14.935Z,8.43
2023-04-06T10:34:43.424Z,8.80
2023-04-06T10:37:19.901Z,8.05
2023-04-06T10:39:49.774Z,9.35
2023-04-06T10:42:18.634Z,14.25
2023-04-06T10:44:47.435Z,7.70
2023-04-06T10:47:19.960Z,12.35
2023-04-06T10:49:48.525Z,9.68
2023-04-06T10:52:18.611Z,7.97
2023-04-06T10:54:50.456Z,7.03
2023-04-06T10:57:30.356Z,6.93
2023-04-06T10:59:58.976Z,8.40
2023-04-06T11:02:29.070Z,8.07
2023-04-06T11:04:59.256Z,11.32
2023-04-06T11:07:30.545Z,8.20
2023-04-06T11:10:14.030Z,8.32
2023-04-06T11:12:45.596Z,11.23
2023-04-06T11:15:14.073Z,7.97
2023-04-06T11:17:42.652Z,8.13
2023-04-06T11:20:13.758Z,9.60
2023-04-06T11:22:52.800Z,10.38
2023-04-06T11:25:21.391Z,10.35
2023-04-06T11:27:50.502Z,9.20
2023-04-06T11:30:20.412Z,11.68
2023-04-06T11:32:49.054Z,9.02
2023-04-06T11:35:23.242Z,11.13
2023-04-06T11:37:53.759Z,8.68
2023-04-06T11:40:25.677Z,12.98
2023-04-06T11:42:58.514Z,12.93
2023-04-06T11:45:29.596Z,9.80
2023-04-06T11:48:00.419Z,11.23
2023-04-06T11:50:35.995Z,14.35
2023-04-06T11:53:05.900Z,11.88
2023-04-06T11:55:41.035Z,10.25
2023-04-06T11:58:09.564Z,11.85
2023-04-06T12:00:38.105Z,14.57
2023-04-06T12:03:06.996Z,12.68
2023-04-06T12:05:36.129Z,10.13
2023-04-06T12:08:06.186Z,12.40
2023-04-06T12:10:34.802Z,14.80
2023-04-06T12:13:03.466Z,10.95
2023-04-06T12:15:31.973Z,9.57
2023-04-06T12:18:00.726Z,11.00
2023-04-06T12:20:29.324Z,15.00
2023-04-06T12:22:57.881Z,12.18
2023-04-06T12:25:27.725Z,11.10
2023-04-06T12:27:56.909Z,8.82
2023-04-06T12:30:25.366Z,7.45
2023-04-06T12:32:53.950Z,10.10
2023-04-06T12:35:22.766Z,9.35
2023-04-06T12:37:51.331Z,9.25
2023-04-06T12:40:20.049Z,12.52
2023-04-06T12:42:49.876Z,10.43
2023-04-06T12:45:20.858Z,12.23
2023-04-06T12:47:49.330Z,11.73
2023-04-06T12:50:18.086Z,10.60
2023-04-06T12:52:46.503Z,11.02
2023-04-06T12:55:16.204Z,12.50
2023-04-06T12:57:45.350Z,12.18
2023-04-06T13:00:17.131Z,10.63
2023-04-06T13:02:48.186Z,12.68
2023-04-06T13:05:19.719Z,11.13
2023-04-06T13:07:48.651Z,17.08
2023-04-06T13:10:17.392Z,11.27
2023-04-06T13:12:45.826Z,11.80
2023-04-06T13:15:16.101Z,10.15
2023-04-06T13:17:44.587Z,9.60
2023-04-06T13:20:14.216Z,10.70
2023-04-06T13:22:42.652Z,10.20
2023-04-06T13:25:11.287Z,12.30
2023-04-06T13:27:40.240Z,10.90
2023-04-06T13:30:11.128Z,9.52
2023-04-06T13:32:41.260Z,12.23
2023-04-06T13:35:11.007Z,12.05
2023-04-06T13:37:40.966Z,11.20
2023-04-06T13:40:11.131Z,11.82
2023-04-06T13:42:41.798Z,10.27
2023-04-06T13:45:11.882Z,13.38
2023-04-06T13:47:42.177Z,11.05
2023-04-06T13:50:11.328Z,11.23
2023-04-06T13:52:39.825Z,13.00
2023-04-06T13:55:09.169Z,12.23
2023-04-06T13:57:38.697Z,11.75
2023-04-06T14:00:10.107Z,8.77
2023-04-06T14:02:38.549Z,14.02
2023-04-06T14:05:09.841Z,10.68
2023-04-06T14:07:38.137Z,11.40
2023-04-06T14:10:14.439Z,8.93
2023-04-06T14:12:43.431Z,10.40
2023-04-06T14:15:13.518Z,15.02
2023-04-06T14:17:42.053Z,13.18
2023-04-06T14:20:15.707Z,12.02
2023-04-06T14:22:44.371Z,11.13
2023-04-06T14:25:13.557Z,15.90
2023-04-06T14:27:41.904Z,9.38
2023-04-06T14:30:11.800Z,13.23
2023-04-06T14:32:40.842Z,10.85
2023-04-06T14:35:11.670Z,13.77
2023-04-06T14:37:40.004Z,10.52
2023-04-06T14:40:10.218Z,11.38
2023-04-06T14:42:38.678Z,13.98
2023-04-06T14:45:08.314Z,10.73
2023-04-06T14:47:36.715Z,13.90
2023-04-06T14:50:06.156Z,13.05
2023-04-06T14:52:35.957Z,10.75
2023-04-06T14:55:04.531Z,13.20
2023-04-06T14:57:33.671Z,12.30
2023-04-06T15:00:01.880Z,10.70
2023-04-06T15:02:30.442Z,11.43
2023-04-06T15:04:59.406Z,11.32
2023-04-06T15:07:27.822Z,11.52
2023-04-06T15:09:57.520Z,10.80
2023-04-06T15:12:25.902Z,11.95
2023-04-06T15:14:54.383Z,13.40
2023-04-06T15:17:22.707Z,11.07
2023-04-06T15:19:51.169Z,11.75
2023-04-06T15:22:19.439Z,12.27
2023-04-06T15:24:47.777Z,14.77
2023-04-06T15:27:17.396Z,10.65
2023-04-06T15:29:45.899Z,14.45
2023-04-06T15:32:14.348Z,9.65
2023-04-06T15:34:42.685Z,11.55
2023-04-06T15:37:11.185Z,9.65
2023-04-06T15:39:39.460Z,10.68
2023-04-06T15:42:07.720Z,10.57
2023-04-06T15:44:37.416Z,10.80
2023-04-06T15:47:05.840Z,11.15
2023-04-06T15:49:34.862Z,14.40
2023-04-06T15:52:03.264Z,12.57
2023-04-06T15:54:31.534Z,12.35
2023-04-06T15:56:59.813Z,10.85
2023-04-06T15:59:28.082Z,9.50
2023-04-06T16:01:57.756Z,9.55
2023-04-06T16:04:26.220Z,12.82
2023-04-06T16:06:54.591Z,14.57
2023-04-06T16:09:22.876Z,15.52
2023-04-06T16:11:51.115Z,11.75
2023-04-06T16:14:19.447Z,13.32
2023-04-06T16:16:47.854Z,10.52
2023-04-06T16:19:17.751Z,12.02
2023-04-06T16:21:46.429Z,10.15
2023-04-06T16:24:14.727Z,12.25
2023-04-06T16:26:44.359Z,13.77
2023-04-06T16:29:12.892Z,11.80
2023-04-06T16:31:41.637Z,10.80
2023-04-06T16:34:10.035Z,10.38
2023-04-06T16:36:41.017Z,10.68
2023-04-06T16:39:11.175Z,13.10
2023-04-06T16:41:40.789Z,11.50
2023-04-06T16:44:09.149Z,10.07
2023-04-06T16:46:39.081Z,10.95
2023-04-06T16:49:07.857Z,12.25
2023-04-06T16:51:37.010Z,12.45
2023-04-06T16:54:06.817Z,10.27
2023-04-06T16:56:35.215Z,11.55
2023-04-06T16:59:03.504Z,10.68
2023-04-06T17:01:31.897Z,13.77
2023-04-06T17:04:00.662Z,10.75
2023-04-06T17:06:29.205Z,11.90
2023-04-06T17:08:59.642Z,11.35
2023-04-06T17:11:39.861Z,12.20
2023-04-06T17:14:14.696Z,13.02
2023-04-06T17:16:43.237Z,13.18
2023-04-06T17:19:11.542Z,11.00
2023-04-06T17:21:42.044Z,10.13
2023-04-06T17:24:10.552Z,10.57
2023-04-06T17:26:40.411Z,11.35
2023-04-06T17:29:08.684Z,12.93
2023-04-06T17:31:37.095Z,11.30
2023-04-06T17:34:05.466Z,15.05
2023-04-06T17:36:33.862Z,13.93
2023-04-06T17:39:02.265Z,11.52
2023-04-06T17:41:32.678Z,12.23
2023-04-06T17:44:02.355Z,11.98
2023-04-06T17:46:30.806Z,14.90
2023-04-06T17:48:59.247Z,12.05
2023-04-06T17:51:27.683Z,10.15
2023-04-06T17:53:55.991Z,12.43
2023-04-06T17:56:24.400Z,10.68
2023-04-06T17:58:56.998Z,11.52
2023-04-06T18:01:26.742Z,14.40
2023-04-06T18:03:55.051Z,12.45
2023-04-06T18:06:25.667Z,11.70
2023-04-06T18:08:55.691Z,11.63
2023-04-06T18:11:25.684Z,13.07
2023-04-06T18:13:54.159Z,13.07
2023-04-06T18:16:22.575Z,12.70
2023-04-06T18:18:52.302Z,11.70
2023-04-06T18:21:20.681Z,14.40
2023-04-06T18:23:49.319Z,12.70
2023-04-06T18:26:19.602Z,11.82
2023-04-06T18:28:49.087Z,12.05
2023-04-06T18:31:17.400Z,12.02
2023-04-06T18:33:46.812Z,11.90
2023-04-06T18:36:16.618Z,12.48
2023-04-06T18:38:47.813Z,13.50
2023-04-06T18:41:16.295Z,11.95
2023-04-06T18:43:44.586Z,13.98
2023-04-06T18:46:14.344Z,11.35
2023-04-06T18:48:42.976Z,13.02
2023-04-06T18:51:11.635Z,11.50
2023-04-06T18:53:41.577Z,11.60
2023-04-06T18:56:18.447Z,17.92
2023-04-06T18:58:48.199Z,12.68
2023-04-06T19:01:24.738Z,14.95
2023-04-06T19:03:54.228Z,13.63
2023-04-06T19:06:22.966Z,15.85
2023-04-06T19:08:52.648Z,18.80
2023-04-06T19:11:23.025Z,16.35
2023-04-06T19:13:51.398Z,17.67
2023-04-06T19:16:19.826Z,17.42
2023-04-06T19:18:48.195Z,18.27
2023-04-06T19:21:17.849Z,19.92
2023-04-06T19:23:46.378Z,18.13
2023-04-06T19:26:17.979Z,16.88
2023-04-06T19:28:47.493Z,19.33
2023-04-06T19:31:18.464Z,14.95
2023-04-06T19:33:47.992Z,21.30
2023-04-06T19:36:17.192Z,19.15
2023-04-06T19:38:45.824Z,30.70
2023-04-06T19:41:15.548Z,20.92
2023-04-06T19:43:43.982Z,24.23
2023-04-06T19:46:13.835Z,24.55
2023-04-06T19:48:42.342Z,28.35
2023-04-06T19:51:10.674Z,25.90
2023-04-06T19:53:38.937Z,25.15
2023-04-06T19:56:07.299Z,33.28
2023-04-06T19:58:37.667Z,29.73
2023-04-06T20:01:06.456Z,31.92
2023-04-06T20:03:36.420Z,27.70
2023-04-06T20:06:05.110Z,30.63
2023-04-06T20:08:33.466Z,26.40
2023-04-06T20:11:03.217Z,21.75
2023-04-06T20:13:31.909Z,20.85
2023-04-06T20:16:01.768Z,23.48
2023-04-06T20:18:31.794Z,20.83
2023-04-06T20:21:00.303Z,18.67
2023-04-06T20:23:28.598Z,20.48
2023-04-06T20:25:58.273Z,19.67
2023-04-06T20:28:26.569Z,19.02
2023-04-06T20:30:54.990Z,19.67
2023-04-06T20:33:24.682Z,19.77
2023-04-06T20:35:58.709Z,19.38
2023-04-06T20:38:33.111Z,19.73
2023-04-06T20:41:02.469Z,18.35
2023-04-06T20:43:31.868Z,18.90
2023-04-06T20:46:02.131Z,18.03
2023-04-06T20:48:35.962Z,19.37
2023-04-06T20:51:06.465Z,19.70
2023-04-06T20:53:38.088Z,16.10
2023-04-06T20:56:07.179Z,16.17
2023-04-06T20:58:35.765Z,17.10
2023-04-06T21:01:04.172Z,16.67
2023-04-06T21:03:33.988Z,18.52
2023-04-06T21:06:02.450Z,16.65
2023-04-06T21:08:30.795Z,18.23
2023-04-06T21:10:59.071Z,16.90
2023-04-06T21:13:27.456Z,19.63
2023-04-06T21:15:57.057Z,19.52
2023-04-06T21:18:25.796Z,19.63
2023-04-06T21:20:55.534Z,20.30
2023-04-06T21:23:23.957Z,16.33
2023-04-06T21:25:55.312Z,16.30
2023-04-06T21:28:24.072Z,18.25
2023-04-06T21:30:52.757Z,18.25
2023-04-06T21:33:21.164Z,18.03
2023-04-06T21:35:50.106Z,16.53
2023-04-06T21:38:19.664Z,19.73
2023-04-06T21:40:56.425Z,17.73
2023-04-06T21:43:24.786Z,18.77
2023-04-06T21:45:53.400Z,19.80
2023-04-06T21:48:21.719Z,20.63
2023-04-06T21:50:50.044Z,17.63
2023-04-06T21:53:19.664Z,18.40
2023-04-06T21:55:48.835Z,20.53
2023-04-06T21:58:17.614Z,19.20
2023-04-06T22:00:46.300Z,19.80
2023-04-06T22:03:14.837Z,18.60
2023-04-06T22:05:43.182Z,19.73
2023-04-06T22:08:17.937Z,19.17
2023-04-06T22:10:55.539Z,19.65
2023-04-06T22:13:23.895Z,20.67
2023-04-06T22:15:52.178Z,17.93
2023-04-06T22:18:21.059Z,20.60
2023-04-06T22:20:49.339Z,20.37
2023-04-06T22:23:17.840Z,18.30
2023-04-06T22:25:46.134Z,19.60
2023-04-06T22:28:15.933Z,18.23
2023-04-06T22:30:44.210Z,19.87
2023-04-06T22:33:12.565Z,18.87
2023-04-06T22:35:41.844Z,18.98
2023-04-06T22:38:10.206Z,18.30
2023-04-06T22:40:38.489Z,17.40
2023-04-06T22:43:06.859Z,18.90
2023-04-06T22:45:36.526Z,21.97
2023-04-06T22:48:05.109Z,20.10
2023-04-06T22:50:33.387Z,18.50
2023-04-06T22:53:02.258Z,16.47
2023-04-06T22:55:31.077Z,20.03
2023-04-06T22:57:59.424Z,20.73
2023-04-06T23:00:27.663Z,17.60
2023-04-06T23:02:57.442Z,17.40
2023-04-06T23:05:26.430Z,18.77
2023-04-06T23:07:54.713Z,15.03
2023-04-06T23:10:23.022Z,18.63
2023-04-06T23:12:51.418Z,16.60
2023-04-06T23:15:19.952Z,17.97
2023-04-06T23:17:49.020Z,17.10
2023-04-06T23:20:18.720Z,18.10
2023-04-06T23:22:47.029Z,16.43
2023-04-06T23:25:15.594Z,18.50
2023-04-06T23:27:44.168Z,16.63
2023-04-06T23:30:13.121Z,15.03
2023-04-06T23:32:41.579Z,16.17
2023-04-06T23:35:10.742Z,18.03
2023-04-06T23:37:40.450Z,18.17
2023-04-06T23:40:10.415Z,17.77
2023-04-06T23:42:38.755Z,17.53
2023-04-06T23:45:08.987Z,20.20
2023-04-06T23:47:37.327Z,14.80
2023-04-06T23:50:06.891Z,15.40
2023-04-06T23:52:35.375Z,17.10
2023-04-06T23:55:06.271Z,15.33
2023-04-06T23:57:34.620Z,13.90
